Time;durP1;ratioP1;P1;durP2;ratioP2;P2;SDS_P1;SDS_P2;PMS_P1;PMS_P2;Temp;Humidity;BMP_temperature;BMP_pressure;BME280_temperature;BME280_humidity;BME280_pressure;Samples;Min_cycle;Max_cycle;Signal;HPM_P1;HPM_P2
2023/05/23 00:00:50;;;;;;;12.82;7.93;;;21.30;96.50;;;;;;10217459;28;20047;-69
2023/05/23 00:05:41;;;;;;;11.85;7.10;;;21.20;96.60;;;;;;10224876;28;20023;-72
2023/05/23 00:10:32;;;;;;;11.82;8.23;;;21.20;96.80;;;;;;10230038;27;20031;-75
2023/05/23 00:15:23;;;;;;;10.13;7.38;;;21.10;96.90;;;;;;10226095;28;20334;-76
2023/05/23 00:20:14;;;;;;;13.93;8.18;;;20.90;97.10;;;;;;10211203;27;20467;-62
2023/05/23 00:25:06;;;;;;;10.80;6.45;;;21.00;97.20;;;;;;10198362;28;20055;-75
2023/05/23 00:29:57;;;;;;;12.40;8.63;;;21.00;97.50;;;;;;10225364;27;20022;-72
2023/05/23 00:34:48;;;;;;;11.40;7.32;;;21.00;97.50;;;;;;10224071;27;20039;-77
2023/05/23 00:39:39;;;;;;;13.18;9.25;;;21.00;97.70;;;;;;10215652;28;20027;-75
2023/05/23 00:44:30;;;;;;;15.20;9.30;;;21.00;97.80;;;;;;10213137;28;20107;-81
2023/05/23 00:49:21;;;;;;;13.48;9.02;;;20.90;98.00;;;;;;10218819;27;20051;-77
2023/05/23 00:54:15;;;;;;;14.25;9.05;;;21.00;98.10;;;;;;10224599;28;20102;-75
2023/05/23 00:59:06;;;;;;;15.52;9.20;;;20.80;98.20;;;;;;10217393;28;20127;-73
2023/05/23 01:03:57;;;;;;;14.43;8.50;;;20.70;98.50;;;;;;10223550;28;20035;-80
2023/05/23 01:08:48;;;;;;;16.60;10.25;;;20.70;98.70;;;;;;10223326;28;20022;-80
2023/05/23 01:13:46;;;;;;;18.85;11.57;;;20.60;98.70;;;;;;10223325;28;20028;-77
2023/05/23 01:18:42;;;;;;;17.13;10.05;;;20.50;99.00;;;;;;10221404;28;20024;-80
2023/05/23 01:24:03;;;;;;;18.08;11.45;;;20.40;99.20;;;;;;10222351;28;20086;-76
2023/05/23 01:29:04;;;;;;;17.35;10.52;;;20.30;99.50;;;;;;10222800;28;20034;-78
2023/05/23 01:33:55;;;;;;;16.23;11.30;;;20.20;99.40;;;;;;10226781;27;20088;-75
2023/05/23 01:38:46;;;;;;;20.70;12.65;;;20.10;99.80;;;;;;10221161;28;20035;-78
2023/05/23 01:43:36;;;;;;;16.92;9.52;;;20.10;99.90;;;;;;10226304;28;20032;-77
2023/05/23 01:48:29;;;;;;;16.38;11.25;;;20.10;99.90;;;;;;10231238;28;20020;-71
2023/05/23 01:53:21;;;;;;;18.88;11.52;;;20.10;99.90;;;;;;10232332;28;20047;-78
2023/05/23 01:58:12;;;;;;;18.15;11.93;;;20.10;99.90;;;;;;10235755;28;20028;-72
2023/05/23 02:03:03;;;;;;;21.38;11.73;;;20.30;99.90;;;;;;10234397;28;20095;-72
2023/05/23 02:07:54;;;;;;;17.83;11.75;;;20.40;99.90;;;;;;10228538;28;20386;-71
2023/05/23 02:12:44;;;;;;;19.38;12.63;;;20.40;99.90;;;;;;10222186;28;20063;-66
2023/05/23 02:17:35;;;;;;;18.48;11.70;;;20.30;99.90;;;;;;10206125;28;20100;-77
2023/05/23 02:22:26;;;;;;;20.25;12.07;;;20.30;99.90;;;;;;10225155;28;20043;-66
2023/05/23 02:27:17;;;;;;;16.63;11.57;;;20.10;99.90;;;;;;10215278;27;20016;-61
2023/05/23 02:32:08;;;;;;;20.25;11.65;;;20.10;99.90;;;;;;10232556;27;20063;-62
2023/05/23 02:36:59;;;;;;;20.20;12.27;;;20.10;99.90;;;;;;10209236;28;20295;-65
2023/05/23 02:41:49;;;;;;;17.58;11.38;;;20.00;99.90;;;;;;10226612;28;20500;-63
2023/05/23 02:46:40;;;;;;;18.73;11.52;;;19.90;99.90;;;;;;10217367;28;20024;-64
2023/05/23 02:51:31;;;;;;;19.88;11.88;;;20.20;99.90;;;;;;10226507;28;20431;-63
2023/05/23 02:56:22;;;;;;;18.63;11.93;;;20.00;99.90;;;;;;10232444;27;20054;-65
2023/05/23 03:01:12;;;;;;;22.08;13.23;;;20.00;99.90;;;;;;10219318;28;20044;-63
2023/05/23 03:06:06;;;;;;;22.25;13.75;;;20.00;99.90;;;;;;10221442;28;20032;-62
2023/05/23 03:10:57;;;;;;;23.30;13.55;;;20.00;99.90;;;;;;10207273;27;20057;-62
2023/05/23 03:15:47;;;;;;;25.13;14.38;;;19.90;99.90;;;;;;10223250;28;20061;-68
2023/05/23 03:20:38;;;;;;;18.98;12.85;;;19.70;99.90;;;;;;10216371;28;20138;-61
2023/05/23 03:25:28;;;;;;;23.00;13.68;;;19.70;99.90;;;;;;10228236;27;20503;-62
2023/05/23 03:30:19;;;;;;;24.80;14.57;;;20.00;99.90;;;;;;10226483;28;20642;-67
2023/05/23 03:35:10;;;;;;;24.45;12.80;;;19.70;99.90;;;;;;10224762;28;20352;-63
2023/05/23 03:40:01;;;;;;;23.42;12.77;;;19.60;99.90;;;;;;10226874;27;20035;-68
2023/05/23 03:44:51;;;;;;;23.73;13.90;;;19.60;99.90;;;;;;10215315;28;20024;-75
2023/05/23 03:49:43;;;;;;;23.33;13.80;;;19.60;99.90;;;;;;10217601;28;20023;-64
2023/05/23 03:54:34;;;;;;;20.42;13.20;;;19.60;99.90;;;;;;10233855;27;20378;-62
2023/05/23 03:59:25;;;;;;;25.73;14.90;;;19.70;99.90;;;;;;10218386;28;20031;-64
2023/05/23 04:04:16;;;;;;;25.48;13.57;;;19.70;99.90;;;;;;10223733;28;20051;-62
2023/05/23 04:09:06;;;;;;;21.30;13.15;;;19.80;99.90;;;;;;10223643;28;20028;-65
2023/05/23 04:13:57;;;;;;;20.92;14.18;;;20.00;99.90;;;;;;10223185;28;20038;-65
2023/05/23 04:18:48;;;;;;;23.98;12.77;;;20.10;99.90;;;;;;10226452;28;20047;-64
2023/05/23 04:23:39;;;;;;;23.17;13.10;;;20.10;99.90;;;;;;10210584;28;20066;-62
2023/05/23 04:28:30;;;;;;;21.77;13.52;;;20.00;99.90;;;;;;10224026;28;20028;-62
2023/05/23 04:33:20;;;;;;;19.77;12.70;;;19.80;99.90;;;;;;10197260;27;20024;-64
2023/05/23 04:38:12;;;;;;;27.10;14.43;;;19.90;99.90;;;;;;10232822;27;20020;-66
2023/05/23 04:43:03;;;;;;;21.67;13.38;;;19.70;99.90;;;;;;10213258;28;20132;-63
2023/05/23 04:47:53;;;;;;;23.08;13.77;;;19.70;99.90;;;;;;10213254;27;20084;-62
2023/05/23 04:52:44;;;;;;;21.15;13.82;;;19.80;99.90;;;;;;10222056;28;20028;-62
2023/05/23 04:57:35;;;;;;;24.77;14.00;;;19.80;99.90;;;;;;10222213;28;20038;-67
2023/05/23 05:02:26;;;;;;;21.63;12.85;;;19.80;99.90;;;;;;10213874;28;20100;-62
2023/05/23 05:07:17;;;;;;;21.45;12.90;;;19.70;99.90;;;;;;10207614;28;20024;-70
2023/05/23 05:12:07;;;;;;;23.13;13.38;;;19.80;99.90;;;;;;10211352;28;20513;-67
2023/05/23 05:16:58;;;;;;;24.17;15.35;;;20.00;99.90;;;;;;10215672;28;20023;-64
2023/05/23 05:21:49;;;;;;;21.70;12.90;;;19.90;99.90;;;;;;10209747;28;20035;-73
2023/05/23 05:26:40;;;;;;;23.65;12.95;;;19.80;99.90;;;;;;10221567;28;20015;-63
2023/05/23 05:31:31;;;;;;;20.77;12.98;;;19.80;99.90;;;;;;10234701;27;20036;-63
2023/05/23 05:36:22;;;;;;;22.20;14.30;;;20.00;99.90;;;;;;10212770;28;20016;-64
2023/05/23 05:41:13;;;;;;;24.17;14.38;;;19.80;99.90;;;;;;10215754;28;20027;-67
2023/05/23 05:46:03;;;;;;;24.70;14.07;;;19.80;99.90;;;;;;10209270;27;20024;-63
2023/05/23 05:50:54;;;;;;;22.45;13.73;;;19.80;99.90;;;;;;10220536;28;20039;-67
2023/05/23 05:55:45;;;;;;;24.98;14.65;;;19.80;99.90;;;;;;10219871;28;20030;-70
2023/05/23 06:00:40;;;;;;;27.83;13.57;;;20.00;99.90;;;;;;10219529;28;20027;-63
2023/05/23 06:05:31;;;;;;;22.40;12.88;;;20.20;99.90;;;;;;10208004;28;20103;-63
2023/05/23 06:10:23;;;;;;;24.00;14.95;;;20.30;99.90;;;;;;10208009;28;20170;-65
2023/05/23 06:15:14;;;;;;;19.23;13.60;;;20.30;99.90;;;;;;10226272;28;20026;-63
2023/05/23 06:20:06;;;;;;;23.13;14.70;;;20.40;99.90;;;;;;10196175;28;20051;-62
2023/05/23 06:24:57;;;;;;;24.67;14.85;;;20.30;99.90;;;;;;10219351;28;20024;-69
2023/05/23 06:29:48;;;;;;;24.10;14.35;;;20.30;99.90;;;;;;10223305;28;20032;-64
2023/05/23 06:34:39;;;;;;;24.08;13.07;;;20.30;99.90;;;;;;10219110;28;20459;-71
2023/05/23 06:39:29;;;;;;;23.95;13.77;;;20.30;99.90;;;;;;10220394;28;20490;-70
2023/05/23 06:44:20;;;;;;;22.70;13.35;;;20.10;99.90;;;;;;10218569;28;20374;-68
2023/05/23 06:49:10;;;;;;;22.95;12.52;;;20.10;99.90;;;;;;10213404;28;20289;-64
2023/05/23 06:54:01;;;;;;;23.63;14.95;;;20.10;99.90;;;;;;10220082;28;20034;-66
2023/05/23 06:58:52;;;;;;;25.10;14.45;;;20.10;99.90;;;;;;10224491;28;20196;-62
2023/05/23 07:03:44;;;;;;;22.67;13.35;;;20.00;99.90;;;;;;10218565;28;20535;-66
2023/05/23 07:08:35;;;;;;;23.90;13.93;;;20.10;99.90;;;;;;10226537;27;20027;-63
2023/05/23 07:13:26;;;;;;;17.30;12.00;;;20.00;99.90;;;;;;10226626;28;20086;-64
2023/05/23 07:18:16;;;;;;;21.00;13.35;;;19.90;99.90;;;;;;10225990;28;20492;-62
2023/05/23 07:23:07;;;;;;;19.75;12.95;;;19.90;99.90;;;;;;10229277;27;20305;-71
2023/05/23 07:27:58;;;;;;;21.05;12.48;;;19.80;99.90;;;;;;10225424;28;20028;-77
2023/05/23 07:32:48;;;;;;;19.40;12.25;;;19.70;99.90;;;;;;10225664;28;20023;-78
2023/05/23 07:37:39;;;;;;;20.63;12.02;;;19.70;99.90;;;;;;10233287;27;20031;-78
2023/05/23 07:42:30;;;;;;;18.30;11.10;;;20.00;99.90;;;;;;10219569;28;20036;-66
2023/05/23 07:47:20;;;;;;;18.02;11.13;;;20.30;99.90;;;;;;10227479;28;20337;-72
2023/05/23 07:52:11;;;;;;;18.60;11.10;;;20.60;99.90;;;;;;10227444;27;20024;-79
2023/05/23 07:57:01;;;;;;;15.85;11.00;;;20.80;99.90;;;;;;10206409;28;20028;-73
2023/05/23 08:01:52;;;;;;;16.30;10.38;;;20.80;99.90;;;;;;10232143;27;20079;-67
2023/05/23 08:06:46;;;;;;;15.20;10.50;;;20.90;99.90;;;;;;10232181;27;20469;-66
2023/05/23 08:11:36;;;;;;;15.20;9.60;;;20.90;99.90;;;;;;10224082;28;20020;-72
2023/05/23 08:16:27;;;;;;;16.48;10.00;;;20.90;99.90;;;;;;10224871;28;20020;-64
2023/05/23 08:21:18;;;;;;;15.02;8.75;;;20.70;99.90;;;;;;10222846;27;20061;-72
2023/05/23 08:26:08;;;;;;;13.45;8.80;;;20.60;99.90;;;;;;10204992;28;20023;-63
2023/05/23 08:30:59;;;;;;;15.02;9.45;;;20.60;99.90;;;;;;10219763;28;20039;-69
2023/05/23 08:35:50;;;;;;;15.57;8.77;;;20.50;99.90;;;;;;10205085;28;20024;-76
2023/05/23 08:40:47;;;;;;;15.55;10.93;;;20.50;99.90;;;;;;10209440;28;20036;-63
2023/05/23 08:45:38;;;;;;;13.02;9.57;;;20.60;99.90;;;;;;10211017;27;20020;-73
2023/05/23 08:50:30;;;;;;;12.43;8.63;;;20.50;99.90;;;;;;10225481;27;20027;-66
2023/05/23 08:55:27;;;;;;;16.00;9.32;;;20.40;99.90;;;;;;10201077;28;20020;-70
2023/05/23 09:00:19;;;;;;;11.15;7.30;;;20.30;99.90;;;;;;10227556;27;20027;-62
2023/05/23 09:05:10;;;;;;;10.10;7.55;;;20.20;99.90;;;;;;10224621;28;20493;-67
2023/05/23 09:10:02;;;;;;;13.07;8.18;;;20.10;99.90;;;;;;10223491;28;20028;-63
2023/05/23 09:14:53;;;;;;;10.88;7.63;;;20.10;99.90;;;;;;10222867;27;20425;-62
2023/05/23 09:19:46;;;;;;;13.30;8.43;;;20.00;99.90;;;;;;10222475;28;20050;-64
2023/05/23 09:24:37;;;;;;;11.77;7.80;;;20.00;99.90;;;;;;10202518;28;20485;-63
2023/05/23 09:29:28;;;;;;;14.15;8.85;;;20.10;99.90;;;;;;10225395;27;20434;-65
2023/05/23 09:34:18;;;;;;;11.98;8.60;;;20.00;99.90;;;;;;10220799;28;20094;-74
2023/05/23 09:39:11;;;;;;;12.13;8.32;;;20.10;99.90;;;;;;10222030;28;20035;-70
2023/05/23 09:44:07;;;;;;;11.10;6.93;;;20.10;99.90;;;;;;10223339;27;20020;-67
2023/05/23 09:48:59;;;;;;;15.43;8.30;;;20.30;99.90;;;;;;10217643;28;20420;-63
2023/05/23 09:53:49;;;;;;;9.77;6.55;;;20.50;99.90;;;;;;10220082;28;20491;-65
2023/05/23 09:58:46;;;;;;;11.48;6.55;;;20.50;99.90;;;;;;10217000;28;20077;-73
2023/05/23 10:03:53;;;;;;;9.32;6.63;;;20.60;99.90;;;;;;10225499;28;20047;-67
2023/05/23 10:08:48;;;;;;;10.20;7.55;;;20.60;99.90;;;;;;10220968;28;20023;-66
2023/05/23 10:13:42;;;;;;;;;;;20.70;99.90;;;;;;10227122;28;20520;-81
2023/05/23 10:18:42;;;;;;;11.03;6.43;;;20.80;99.90;;;;;;10220662;28;19956;-78
2023/05/23 10:23:33;;;;;;;10.93;6.47;;;20.70;99.90;;;;;;10223922;28;20469;-72
2023/05/23 10:28:26;;;;;;;10.80;7.00;;;20.90;99.90;;;;;;10234372;28;20029;-70
2023/05/23 10:33:17;;;;;;;9.00;6.72;;;21.00;99.90;;;;;;10223615;28;20027;-66
2023/05/23 10:38:26;;;;;;;8.75;6.30;;;21.00;99.90;;;;;;10208691;28;20024;-78
2023/05/23 10:43:47;;;;;;;10.23;6.65;;;21.40;99.90;;;;;;10223173;28;20607;-65
2023/05/23 10:48:43;;;;;;;9.60;6.90;;;21.60;99.80;;;;;;10214579;28;20070;-68
2023/05/23 10:53:43;;;;;;;11.93;7.22;;;21.50;99.70;;;;;;10230529;27;20026;-63
2023/05/23 10:58:35;;;;;;;12.02;6.65;;;21.30;99.80;;;;;;10223402;28;20016;-67
2023/05/23 11:03:30;;;;;;;9.05;6.07;;;21.10;99.90;;;;;;10227297;28;20554;-64
2023/05/23 11:08:23;;;;;;;8.07;5.80;;;20.90;99.80;;;;;;10236123;27;20035;-63
2023/05/23 11:13:14;;;;;;;11.23;5.57;;;20.70;99.90;;;;;;10231732;27;20032;-64
2023/05/23 11:18:05;;;;;;;8.02;5.57;;;20.80;99.70;;;;;;10208020;28;20024;-63
2023/05/23 11:23:00;;;;;;;7.47;5.30;;;20.70;99.70;;;;;;10226981;27;20221;-69
2023/05/23 11:27:51;;;;;;;6.55;5.13;;;20.80;99.50;;;;;;10225645;28;20481;-62
2023/05/23 11:32:53;;;;;;;9.65;5.05;;;20.60;99.50;;;;;;10225289;28;20024;-64
2023/05/23 11:37:44;;;;;;;9.18;6.10;;;20.50;99.60;;;;;;10228486;27;20108;-62
2023/05/23 11:42:40;;;;;;;9.57;5.40;;;20.60;99.60;;;;;;10218941;28;20574;-61
2023/05/23 11:47:31;;;;;;;7.25;5.18;;;20.50;99.50;;;;;;10225138;27;20032;-63
2023/05/23 11:52:22;;;;;;;8.55;5.05;;;20.30;99.70;;;;;;10213807;27;20027;-62
2023/05/23 11:57:13;;;;;;;7.97;4.82;;;20.40;99.50;;;;;;10222025;28;20027;-63
2023/05/23 12:02:05;;;;;;;8.13;4.65;;;20.40;99.40;;;;;;10206186;28;20130;-65
2023/05/23 12:06:56;;;;;;;7.68;4.40;;;20.50;99.40;;;;;;10221222;28;20030;-63
2023/05/23 12:11:48;;;;;;;5.65;3.80;;;20.80;99.00;;;;;;10222811;28;20024;-66
2023/05/23 12:16:38;;;;;;;4.85;3.40;;;21.40;98.80;;;;;;10215249;28;20028;-65
2023/05/23 12:21:44;;;;;;;6.25;3.20;;;21.40;98.50;;;;;;10207315;28;20046;-64
2023/05/23 12:26:45;;;;;;;3.95;3.05;;;21.60;98.00;;;;;;10223248;28;20400;-73
2023/05/23 12:31:36;;;;;;;4.65;3.10;;;21.70;97.70;;;;;;10223223;28;20040;-60
2023/05/23 12:36:31;;;;;;;4.07;2.88;;;21.80;97.60;;;;;;10218856;28;20012;-63
2023/05/23 12:41:21;;;;;;;5.75;3.58;;;22.00;97.00;;;;;;10217892;28;20045;-73
2023/05/23 12:46:12;;;;;;;6.20;4.10;;;22.20;96.90;;;;;;10216360;27;20023;-62
2023/05/23 12:51:03;;;;;;;6.25;3.30;;;22.20;96.60;;;;;;10202995;28;20208;-62
2023/05/23 12:55:53;;;;;;;4.35;2.67;;;22.90;96.50;;;;;;10229016;27;20027;-74
2023/05/23 13:00:44;;;;;;;6.15;3.28;;;23.30;96.00;;;;;;10222954;27;20095;-76
2023/05/23 13:05:35;;;;;;;3.47;3.05;;;23.50;95.70;;;;;;10222012;28;20485;-76
2023/05/23 13:10:25;;;;;;;4.30;3.20;;;23.40;95.90;;;;;;10222199;28;20040;-74
2023/05/23 13:15:16;;;;;;;3.65;3.10;;;23.20;95.50;;;;;;10227434;27;20027;-70
2023/05/23 13:20:08;;;;;;;5.22;2.67;;;23.70;95.10;;;;;;10222895;27;20047;-69
2023/05/23 13:24:58;;;;;;;3.88;2.72;;;25.60;94.30;;;;;;10220930;28;20019;-79
2023/05/23 13:29:49;;;;;;;4.03;2.97;;;25.80;93.30;;;;;;10221910;27;20035;-71
2023/05/23 13:34:41;;;;;;;3.38;2.80;;;27.20;92.80;;;;;;10221528;28;20488;-60
2023/05/23 13:39:32;;;;;;;4.13;2.92;;;27.30;91.90;;;;;;10221521;28;20039;-61
2023/05/23 13:44:22;;;;;;;4.82;2.50;;;25.30;92.60;;;;;;10221452;27;20055;-64
2023/05/23 13:49:13;;;;;;;3.35;2.90;;;26.20;91.80;;;;;;10228481;27;20092;-63
2023/05/23 13:54:04;;;;;;;4.20;2.80;;;25.80;91.30;;;;;;10234960;27;20040;-67
2023/05/23 13:58:55;;;;;;;3.20;2.30;;;24.90;91.40;;;;;;10237288;27;20035;-64
2023/05/23 14:03:46;;;;;;;3.95;2.08;;;24.80;91.00;;;;;;10243067;28;20113;-63
2023/05/23 14:08:36;;;;;;;4.00;2.20;;;24.60;91.00;;;;;;10229709;28;20031;-62
2023/05/23 14:13:27;;;;;;;4.10;2.65;;;25.00;90.40;;;;;;10218376;28;20107;-63
2023/05/23 14:18:18;;;;;;;4.57;2.60;;;24.80;90.50;;;;;;10223792;28;20107;-61
2023/05/23 14:23:08;;;;;;;4.75;2.63;;;24.80;90.40;;;;;;10228276;28;20085;-71
2023/05/23 14:27:59;;;;;;;3.45;2.60;;;24.30;90.40;;;;;;10233794;27;20023;-64
2023/05/23 14:32:50;;;;;;;3.42;2.53;;;24.00;90.70;;;;;;10228807;28;20026;-65
2023/05/23 14:37:40;;;;;;;2.60;1.88;;;23.60;90.90;;;;;;10227549;28;20481;-67
2023/05/23 14:42:31;;;;;;;2.97;2.40;;;23.40;91.00;;;;;;10232503;27;20050;-64
2023/05/23 14:47:22;;;;;;;2.80;2.20;;;23.20;91.00;;;;;;10219534;28;20016;-65
2023/05/23 14:52:13;;;;;;;3.35;2.28;;;23.50;90.60;;;;;;10227146;27;20036;-63
2023/05/23 14:57:04;;;;;;;2.33;2.08;;;24.10;90.40;;;;;;10225847;27;20076;-61
2023/05/23 15:01:54;;;;;;;2.88;2.22;;;24.00;90.40;;;;;;10222136;28;20189;-61
2023/05/23 15:06:46;;;;;;;3.20;2.30;;;24.20;90.40;;;;;;10229306;27;20050;-64
2023/05/23 15:11:37;;;;;;;2.40;2.00;;;24.30;90.20;;;;;;10225384;28;20054;-65
2023/05/23 15:16:31;;;;;;;3.13;2.22;;;23.90;90.20;;;;;;10224911;28;20063;-60
2023/05/23 15:21:22;;;;;;;2.45;2.25;;;24.20;90.00;;;;;;10214640;27;20027;-63
2023/05/23 15:26:12;;;;;;;2.42;2.08;;;25.40;88.90;;;;;;10224930;28;20031;-62
2023/05/23 15:31:03;;;;;;;2.72;1.90;;;27.10;87.10;;;;;;10224252;28;20039;-61
2023/05/23 15:35:54;;;;;;;4.32;2.22;;;27.00;86.60;;;;;;10223921;27;20015;-62
2023/05/23 15:40:47;;;;;;;2.25;1.90;;;29.00;85.50;;;;;;10222917;28;20035;-63
2023/05/23 15:45:38;;;;;;;2.10;1.90;;;29.00;83.60;;;;;;10215606;28;20024;-64
2023/05/23 15:50:28;;;;;;;3.63;2.10;;;29.00;82.20;;;;;;10226244;27;20032;-72
2023/05/23 15:55:19;;;;;;;3.17;2.40;;;29.80;80.30;;;;;;10221998;28;20401;-65
2023/05/23 16:00:10;;;;;;;2.60;2.40;;;30.30;77.90;;;;;;10217562;28;20096;-62
2023/05/23 16:05:01;;;;;;;2.70;2.22;;;30.60;76.00;;;;;;10231869;27;20039;-70
2023/05/23 16:09:51;;;;;;;3.35;2.65;;;27.10;78.60;;;;;;10222969;28;20028;-62
2023/05/23 16:14:42;;;;;;;3.97;2.40;;;25.50;79.90;;;;;;10223580;28;20027;-62
2023/05/23 16:19:33;;;;;;;3.65;2.47;;;27.40;77.50;;;;;;10204609;28;20505;-71
2023/05/23 16:24:25;;;;;;;3.38;2.80;;;27.60;76.50;;;;;;10222415;28;20024;-65
2023/05/23 16:29:15;;;;;;;3.92;2.88;;;28.90;76.00;;;;;;10216256;28;20035;-65
2023/05/23 16:34:07;;;;;;;3.80;2.58;;;28.50;75.30;;;;;;10214915;28;20552;-65
2023/05/23 16:38:57;;;;;;;3.55;2.53;;;27.20;76.50;;;;;;10219508;28;20019;-63
2023/05/23 16:43:48;;;;;;;4.22;3.15;;;25.50;78.30;;;;;;10200342;28;20019;-64
2023/05/23 16:48:39;;;;;;;4.50;2.78;;;26.20;77.30;;;;;;10219111;28;20096;-71
2023/05/23 16:53:29;;;;;;;4.78;2.85;;;26.80;76.40;;;;;;10221719;28;20019;-64
2023/05/23 16:58:20;;;;;;;3.35;2.83;;;25.40;78.00;;;;;;10218059;28;20024;-66
2023/05/23 17:03:11;;;;;;;3.35;2.70;;;24.70;79.10;;;;;;10232005;27;20047;-65
2023/05/23 17:08:02;;;;;;;5.60;3.47;;;24.90;78.60;;;;;;10221151;28;20039;-75
2023/05/23 17:12:52;;;;;;;5.65;3.10;;;24.50;78.80;;;;;;10213822;27;20028;-76
2023/05/23 17:17:43;;;;;;;3.67;3.03;;;24.40;79.00;;;;;;10223668;27;20026;-76
2023/05/23 17:22:34;;;;;;;4.57;2.97;;;25.40;77.60;;;;;;10220544;28;20485;-73
2023/05/23 17:27:25;;;;;;;5.68;3.45;;;24.70;78.60;;;;;;10225177;27;20019;-66
2023/05/23 17:32:15;;;;;;;5.60;3.22;;;26.20;77.30;;;;;;10224010;27;20512;-77
2023/05/23 17:37:07;;;;;;;4.00;2.78;;;27.10;76.70;;;;;;10220476;28;20023;-73
2023/05/23 17:41:57;;;;;;;4.85;3.88;;;26.40;78.00;;;;;;10199029;28;20038;-72
2023/05/23 17:46:48;;;;;;;4.47;3.63;;;25.10;79.90;;;;;;10191917;28;20049;-75
2023/05/23 17:51:38;;;;;;;6.57;4.15;;;23.60;82.10;;;;;;10220505;28;20032;-73
2023/05/23 17:56:29;;;;;;;4.72;3.45;;;22.90;83.20;;;;;;10218729;28;20019;-77
2023/05/23 18:01:20;;;;;;;9.70;4.18;;;22.70;83.40;;;;;;10205539;28;20517;-76
2023/05/23 18:06:11;;;;;;;5.53;4.22;;;22.50;84.30;;;;;;10190692;28;20035;-74
2023/05/23 18:11:01;;;;;;;6.57;3.95;;;22.10;85.20;;;;;;10217034;28;20036;-74
2023/05/23 18:15:52;;;;;;;7.40;4.30;;;21.90;85.60;;;;;;10218603;28;20024;-70
2023/05/23 18:20:43;;;;;;;6.40;4.03;;;21.80;86.30;;;;;;10201619;28;20040;-63
2023/05/23 18:25:33;;;;;;;6.85;3.60;;;21.60;86.90;;;;;;10232066;28;20023;-66
2023/05/23 18:30:25;;;;;;;9.32;4.13;;;21.40;87.30;;;;;;10221150;28;20028;-67
2023/05/23 18:35:16;;;;;;;5.00;4.07;;;21.30;87.80;;;;;;10221855;28;20020;-73
2023/05/23 18:40:08;;;;;;;6.15;3.85;;;21.20;88.40;;;;;;10220319;28;20028;-77
2023/05/23 18:44:59;;;;;;;4.53;3.38;;;21.10;88.70;;;;;;10210770;28;20490;-75
2023/05/23 18:49:50;;;;;;;5.72;3.67;;;20.90;89.60;;;;;;10196437;28;20028;-69
2023/05/23 18:54:43;;;;;;;6.63;4.05;;;20.90;89.60;;;;;;10221661;28;20432;-76
2023/05/23 18:59:34;;;;;;;5.07;4.03;;;20.80;90.00;;;;;;10218420;28;20032;-77
2023/05/23 19:04:25;;;;;;;6.78;4.38;;;20.80;89.90;;;;;;10243721;27;20086;-81
2023/05/23 19:09:16;;;;;;;6.80;3.75;;;20.80;89.90;;;;;;10242700;27;20020;-65
2023/05/23 19:14:07;;;;;;;7.82;4.60;;;20.60;90.20;;;;;;10230234;28;20023;-72
2023/05/23 19:18:57;;;;;;;5.55;3.83;;;20.50;90.30;;;;;;10211613;28;20085;-73
2023/05/23 19:23:48;;;;;;;6.47;4.07;;;20.30;90.60;;;;;;10211571;28;20029;-65
2023/05/23 19:28:40;;;;;;;5.47;4.40;;;20.30;90.60;;;;;;10229951;28;20382;-71
2023/05/23 19:33:30;;;;;;;5.90;3.90;;;20.30;90.70;;;;;;10210297;28;20023;-70
2023/05/23 19:38:21;;;;;;;5.72;4.43;;;20.10;90.90;;;;;;10241933;27;20481;-76
2023/05/23 19:43:15;;;;;;;6.00;3.80;;;20.00;91.10;;;;;;10234380;27;20030;-63
2023/05/23 19:48:06;;;;;;;7.53;4.70;;;19.80;91.30;;;;;;10222965;27;20015;-69
2023/05/23 19:52:58;;;;;;;6.50;3.97;;;19.90;91.30;;;;;;10215136;28;20040;-66
2023/05/23 19:57:49;;;;;;;7.10;4.65;;;19.80;91.40;;;;;;10209831;28;20024;-69
2023/05/23 20:02:40;;;;;;;6.78;4.70;;;19.80;91.40;;;;;;10203806;28;20048;-71
2023/05/23 20:07:30;;;;;;;9.25;4.68;;;19.90;91.30;;;;;;10213239;28;20500;-65
2023/05/23 20:12:22;;;;;;;9.88;5.22;;;19.90;91.50;;;;;;10214729;28;20124;-69
2023/05/23 20:17:12;;;;;;;8.30;5.90;;;19.70;91.50;;;;;;10199000;28;20234;-77
2023/05/23 20:22:03;;;;;;;9.02;6.00;;;19.60;91.70;;;;;;10224795;28;20230;-65
2023/05/23 20:26:54;;;;;;;10.88;6.38;;;19.70;91.70;;;;;;10223226;28;20396;-66
2023/05/23 20:31:45;;;;;;;9.50;4.95;;;19.80;91.50;;;;;;10235689;27;20116;-75
2023/05/23 20:36:36;;;;;;;7.93;5.47;;;19.50;91.70;;;;;;10222900;28;20389;-70
2023/05/23 20:41:28;;;;;;;9.80;6.00;;;19.60;92.10;;;;;;10194388;28;20665;-64
2023/05/23 20:46:18;;;;;;;11.52;6.25;;;19.30;92.00;;;;;;10211421;28;20024;-64
2023/05/23 20:51:09;;;;;;;9.07;5.65;;;19.10;92.20;;;;;;10221894;28;20027;-66
2023/05/23 20:56:01;;;;;;;11.60;5.78;;;19.20;92.00;;;;;;10221391;28;20027;-71
2023/05/23 21:00:52;;;;;;;11.50;5.20;;;18.90;92.20;;;;;;10203968;28;20523;-66
2023/05/23 21:05:43;;;;;;;9.30;6.10;;;18.90;92.30;;;;;;10221140;28;20028;-64
2023/05/23 21:10:33;;;;;;;9.77;5.68;;;18.80;92.30;;;;;;10216368;28;20031;-66
2023/05/23 21:15:24;;;;;;;8.70;4.85;;;18.80;92.30;;;;;;10221080;28;20019;-67
2023/05/23 21:20:15;;;;;;;9.13;4.90;;;18.60;92.30;;;;;;10220791;28;20043;-71
2023/05/23 21:25:06;;;;;;;9.00;5.10;;;18.50;92.10;;;;;;10220161;28;20016;-68
2023/05/23 21:29:57;;;;;;;8.80;4.70;;;18.30;92.10;;;;;;10223012;27;20502;-64
2023/05/23 21:34:47;;;;;;;9.20;3.95;;;18.20;92.10;;;;;;10219952;28;20034;-64
2023/05/23 21:39:39;;;;;;;6.25;4.28;;;18.10;91.90;;;;;;10220348;28;20047;-65
2023/05/23 21:44:31;;;;;;;8.52;4.57;;;18.00;91.70;;;;;;10228492;27;20485;-66
2023/05/23 21:49:22;;;;;;;7.07;3.85;;;17.90;91.60;;;;;;10210130;28;20035;-67
2023/05/23 21:54:12;;;;;;;6.90;4.05;;;18.00;91.40;;;;;;10221286;27;20036;-69
2023/05/23 21:59:03;;;;;;;5.90;3.90;;;17.90;91.40;;;;;;10223617;27;20478;-64
2023/05/23 22:03:53;;;;;;;8.98;4.55;;;17.70;91.30;;;;;;10232204;28;20051;-63
2023/05/23 22:08:44;;;;;;;10.27;4.13;;;17.70;91.30;;;;;;10219324;28;20020;-68
2023/05/23 22:13:35;;;;;;;7.55;4.40;;;17.50;91.30;;;;;;10220096;28;20031;-73
2023/05/23 22:18:26;;;;;;;11.70;3.92;;;17.40;91.30;;;;;;10219944;28;20031;-64
2023/05/23 22:23:17;;;;;;;5.05;3.42;;;17.50;91.10;;;;;;10227146;28;20064;-64
2023/05/23 22:28:08;;;;;;;5.45;4.05;;;17.30;91.10;;;;;;10219054;28;20562;-67
2023/05/23 22:33:00;;;;;;;6.18;3.63;;;17.20;91.20;;;;;;10218988;28;20139;-62
2023/05/23 22:37:51;;;;;;;6.18;3.67;;;17.20;91.30;;;;;;10233325;27;20404;-65
2023/05/23 22:42:41;;;;;;;6.32;3.55;;;17.20;91.20;;;;;;10217749;28;20031;-65
2023/05/23 22:47:33;;;;;;;4.55;3.30;;;17.20;91.20;;;;;;10216047;28;20024;-67
2023/05/23 22:52:24;;;;;;;6.05;3.85;;;17.20;91.30;;;;;;10213117;27;20118;-67
2023/05/23 22:57:14;;;;;;;7.45;4.22;;;17.30;91.20;;;;;;10209859;28;20028;-68
2023/05/23 23:02:05;;;;;;;5.10;3.58;;;17.10;91.30;;;;;;10226479;28;20128;-63
2023/05/23 23:06:57;;;;;;;6.45;3.55;;;17.20;91.20;;;;;;10234418;27;20031;-63
2023/05/23 23:11:48;;;;;;;6.80;3.53;;;17.20;91.20;;;;;;10227862;28;20047;-65
2023/05/23 23:16:39;;;;;;;5.85;3.60;;;17.10;91.20;;;;;;10207576;28;20312;-64
2023/05/23 23:21:29;;;;;;;8.73;4.15;;;17.10;91.20;;;;;;10225749;27;20041;-63
2023/05/23 23:26:20;;;;;;;6.63;4.28;;;17.00;91.30;;;;;;10207521;28;20096;-64
2023/05/23 23:31:11;;;;;;;7.13;4.35;;;17.00;91.30;;;;;;10207055;28;20447;-63
2023/05/23 23:36:01;;;;;;;6.10;3.70;;;17.00;91.30;;;;;;10226641;27;20182;-64
2023/05/23 23:40:52;;;;;;;6.57;3.67;;;16.70;91.40;;;;;;10226561;27;20089;-66
2023/05/23 23:45:44;;;;;;;5.35;3.42;;;16.60;91.60;;;;;;10214565;28;20397;-65
2023/05/23 23:50:34;;;;;;;4.43;3.05;;;16.60;91.60;;;;;;10231314;27;20055;-67
2023/05/23 23:55:25;;;;;;;5.45;3.10;;;16.60;91.60;;;;;;10224836;28;20027;-64
